This is the latest recevied weather packets stored in our database for station/object W1SCW. If no packets are shown the sender has not sent any weather packets the latest 1 day(s).
| Time | Temp. | Humidity | Pressure | Rain* | Wind** | Luminosity | Snow |
|---|---|---|---|---|---|---|---|
| 1778030320 | 26.67° C | 82% | 1005.8 hPa | 0 mm | - | 0 W/m² | - |
| 1778030017 | 26.67° C | 81% | 1005.5 hPa | 0 mm | - | 0 W/m² | - |
| 1778029714 | 26.67° C | 81% | 1005.6 hPa | 0 mm | - | 1 W/m² | - |
| 1778029412 | 26.67° C | 81% | 1005.4 hPa | 0 mm | - | 1 W/m² | - |
| 1778029109 | 26.67° C | 81% | 1005.3 hPa | 0 mm | - | 3 W/m² | - |
| 1778028806 | 26.67° C | 81% | 1005.1 hPa | 0 mm | - | 5 W/m² | - |
| 1778027895 | 26.67° C | 79% | 1005.2 hPa | 0 mm | - | 15 W/m² | - |
| 1778027592 | 26.67° C | 79% | 1005.4 hPa | 0 mm | - | 20 W/m² | - |
| 1778027288 | 27.22° C | 79% | 1005.2 hPa | 0 mm | - | 28 W/m² | - |
| 1778026378 | 27.22° C | 79% | 1005.1 hPa | 0 mm | - | 48 W/m² | - |
| 1778023956 | 27.78° C | 77% | 1004.8 hPa | 0 mm | - | 106 W/m² | - |
| 1778023350 | 27.78° C | 77% | 1004.8 hPa | 0 mm | - | 128 W/m² | - |
| 1778021836 | 28.33° C | 77% | 1005.1 hPa | 0 mm | - | 129 W/m² | - |
| 1778021533 | 27.78° C | 77% | 1005.1 hPa | 0 mm | - | 149 W/m² | - |
| 1778020624 | 28.33° C | 76% | 1005.1 hPa | 0 mm | - | 134 W/m² | - |
| 1778019712 | 28.33° C | 75% | 1005.3 hPa | 0 mm | - | 231 W/m² | - |
| 1778017594 | 28.89° C | 75% | 1005.6 hPa | 0 mm | - | 357 W/m² | - |
| 1778016079 | 29.44° C | 71% | 1005.7 hPa | 0 mm | - | 319 W/m² | - |
| 1778014866 | 29.44° C | 72% | 1005.9 hPa | 0 mm | - | 384 W/m² | - |
| 1778013352 | 29.44° C | 71% | 1006.3 hPa | 0 mm | - | 414 W/m² | - |
| 1778012441 | 29.44° C | 72% | 1006.4 hPa | 0 mm | - | 405 W/m² | - |
| 1778010624 | 28.89° C | 74% | 1006.7 hPa | 0 mm | - | 399 W/m² | - |
* Rain latest hour (hover to see other rain measurements)
** Current wind speed in m/s (hover to see current wind gust speed)